Tongelre, Netherlands
Current Conditions -  °F | °C
As of 10:17 AM on Monday 24 Nov 2014 (Local Time) from EHEH Reporting Station
Haze Haze  
Wind Chill: 45°   Ceiling: Unl
Heat Index: 45°   Visibility: 5mi
Dew Point: 45°   Wind: 3mph
Humidity: 100%   Direction: 220°SW
Pressure: 30.27"   Gusts: NA
Location:  51.45°N, 5.52°E
Report Text: EHEH 240917Z AUTO 22003KT 8000 BR NCD 07/07 Q1025 BLU VRB03KT 9999 FEW030 TEMPO 0250 BCFG
Loading
Personal Weather Stations






























Interactive Weather Map New forecast layout! Learn more

10-Day Weather Forecast

Advertisements
Track Severe Weather on mobile